高雄國際航空站 - ATIS

METAR RCKH 011700Z 34005KT 9999 FEW016 SCT040 BKN100 22/16 Q1016 NOSIG RMK A3001=

站台狀態:Online
最後更新:2022-12-02 01:30:02